AQQ10 IFIS: Internet Flight Information System
logo dgac
Martes 06 de Diciembre del 2022
Buscar por aerodromo o helipuerto
Ingrese nombre de aeródromo, localidad o designador OACI:
METAR del 06-12-2022 a las 08:00 UTC
Para mayor información visite www.meteochile.cl
METAR SCDA 060800Z 13004KT CAVOK 18/12 Q1014
Viento: dirección 130 grados, velocidad 4 nudos
Visibilidad: 10 km o más,
    sin nubes bajo los 5.000 pies o bajo del MSA (Mínimo de Seguridad del Aeródromo),
    sin cumulonimbus, y sin fenómenos de tiempo significativo en el aeródromo o alrededores
Temperatura: 18 °C
Rocío: 12 °C
Humedad_relativa: 68%
Presión: 1014 hPa
METAR del 06-12-2022 a las 07:00 UTC
Para mayor información visite www.meteochile.cl
METAR SCDA 060700Z 12003KT CAVOK 18/12 Q1014
Viento: dirección 120 grados, velocidad 3 nudos
Visibilidad: 10 km o más,
    sin nubes bajo los 5.000 pies o bajo del MSA (Mínimo de Seguridad del Aeródromo),
    sin cumulonimbus, y sin fenómenos de tiempo significativo en el aeródromo o alrededores
Temperatura: 18 °C
Rocío: 12 °C
Humedad_relativa: 68%
Presión: 1014 hPa
METAR del 06-12-2022 a las 06:00 UTC
Para mayor información visite www.meteochile.cl
METAR SCDA 060600Z 10003KT 9999 BKN030 18/12 Q1014
Viento: dirección 100 grados, velocidad 3 nudos
Visibilidad: 10 km o más
Nubes: Nublado a 3000 pies sobre el nivel del aeródromo
Temperatura: 18 °C
Rocío: 12 °C
Humedad_relativa: 68%
Presión: 1014 hPa
METAR del 06-12-2022 a las 05:00 UTC
Para mayor información visite www.meteochile.cl
METAR SCDA 060500Z 14005KT 9999 OVC029 19/12 Q1014
Viento: dirección 140 grados, velocidad 5 nudos
Visibilidad: 10 km o más
Nubes: Cubierto a 2900 pies sobre el nivel del aeródromo
Temperatura: 19 °C
Rocío: 12 °C
Humedad_relativa: 64%
Presión: 1014 hPa
METAR del 06-12-2022 a las 04:00 UTC
Para mayor información visite www.meteochile.cl
METAR SCDA 060400Z 21005KT 9999 OVC030 19/14 Q1015
Viento: dirección 210 grados, velocidad 5 nudos
Visibilidad: 10 km o más
Nubes: Cubierto a 3000 pies sobre el nivel del aeródromo
Temperatura: 19 °C
Rocío: 14 °C
Humedad_relativa: 73%
Presión: 1015 hPa
METAR del 06-12-2022 a las 03:00 UTC
Para mayor información visite www.meteochile.cl
METAR SCDA 060300Z 21006KT 9999 OVC031 19/14 Q1015
Viento: dirección 210 grados, velocidad 6 nudos
Visibilidad: 10 km o más
Nubes: Cubierto a 3100 pies sobre el nivel del aeródromo
Temperatura: 19 °C
Rocío: 14 °C
Humedad_relativa: 73%
Presión: 1015 hPa
METAR del 06-12-2022 a las 02:00 UTC
Para mayor información visite www.meteochile.cl
METAR SCDA 060200Z 25004KT 230V290 9999 OVC031 19/14 Q1015
Viento: dirección 250 grados, velocidad 4 nudos
Viento con dirección variable entre 230 y 290 grados
Visibilidad: 10 km o más
Nubes: Cubierto a 3100 pies sobre el nivel del aeródromo
Temperatura: 19 °C
Rocío: 14 °C
Humedad_relativa: 73%
Presión: 1015 hPa
METAR del 06-12-2022 a las 01:00 UTC
Para mayor información visite www.meteochile.cl
METAR SCDA 060100Z 29005KT 9999 BKN031 18/15 Q1015
Viento: dirección 290 grados, velocidad 5 nudos
Visibilidad: 10 km o más
Nubes: Nublado a 3100 pies sobre el nivel del aeródromo
Temperatura: 18 °C
Rocío: 15 °C
Humedad_relativa: 83%
Presión: 1015 hPa
METAR del 06-12-2022 a las 00:00 UTC
Para mayor información visite www.meteochile.cl
METAR SCDA 060000Z 21007KT 9999 BKN032 19/14 Q1014
Viento: dirección 210 grados, velocidad 7 nudos
Visibilidad: 10 km o más
Nubes: Nublado a 3200 pies sobre el nivel del aeródromo
Temperatura: 19 °C
Rocío: 14 °C
Humedad_relativa: 73%
Presión: 1014 hPa
METAR del 05-12-2022 a las 23:00 UTC
Para mayor información visite www.meteochile.cl
METAR SCDA 052300Z 22009KT 9999 SCT034 19/14 Q1013
Viento: dirección 220 grados, velocidad 9 nudos
Visibilidad: 10 km o más
Nubes: Nubosidad parcial a 3400 pies sobre el nivel del aeródromo
Temperatura: 19 °C
Rocío: 14 °C
Humedad_relativa: 73%
Presión: 1013 hPa